sensor_id;sensor_type;location;lat;lon;timestamp;temperature;humidity
69281;SHT31;56392;51.082;17.080;2023-07-16T00:03:40;23.86;62.40
69281;SHT31;56392;51.082;17.080;2023-07-16T00:09:04;23.86;62.51
69281;SHT31;56392;51.082;17.080;2023-07-16T00:14:27;23.81;62.81
69281;SHT31;56392;51.082;17.080;2023-07-16T00:19:50;23.83;62.82
69281;SHT31;56392;51.082;17.080;2023-07-16T00:25:15;23.78;63.18
69281;SHT31;56392;51.082;17.080;2023-07-16T00:30:38;23.74;63.32
69281;SHT31;56392;51.082;17.080;2023-07-16T00:36:01;23.69;63.85
69281;SHT31;56392;51.082;17.080;2023-07-16T00:41:26;23.69;63.74
69281;SHT31;56392;51.082;17.080;2023-07-16T00:46:49;23.62;63.84
69281;SHT31;56392;51.082;17.080;2023-07-16T00:52:17;23.60;64.25
69281;SHT31;56392;51.082;17.080;2023-07-16T00:57:43;23.50;64.66
69281;SHT31;56392;51.082;17.080;2023-07-16T01:03:07;23.46;64.55
69281;SHT31;56392;51.082;17.080;2023-07-16T01:08:32;23.49;64.62
69281;SHT31;56392;51.082;17.080;2023-07-16T01:13:59;23.46;64.71
69281;SHT31;56392;51.082;17.080;2023-07-16T01:19:23;23.35;65.28
69281;SHT31;56392;51.082;17.080;2023-07-16T01:25:04;23.25;65.65
69281;SHT31;56392;51.082;17.080;2023-07-16T01:30:30;23.11;66.14
69281;SHT31;56392;51.082;17.080;2023-07-16T01:35:54;23.09;65.98
69281;SHT31;56392;51.082;17.080;2023-07-16T01:41:18;23.06;66.23
69281;SHT31;56392;51.082;17.080;2023-07-16T01:46:43;22.96;66.60
69281;SHT31;56392;51.082;17.080;2023-07-16T01:52:07;22.96;66.68
69281;SHT31;56392;51.082;17.080;2023-07-16T01:57:30;22.91;66.94
69281;SHT31;56392;51.082;17.080;2023-07-16T02:02:55;22.83;67.45
69281;SHT31;56392;51.082;17.080;2023-07-16T02:08:18;22.87;67.21
69281;SHT31;56392;51.082;17.080;2023-07-16T02:13:41;22.83;67.27
69281;SHT31;56392;51.082;17.080;2023-07-16T02:19:05;22.78;67.49
69281;SHT31;56392;51.082;17.080;2023-07-16T02:24:28;22.72;67.65
69281;SHT31;56392;51.082;17.080;2023-07-16T02:29:51;22.68;67.77
69281;SHT31;56392;51.082;17.080;2023-07-16T02:35:16;22.63;68.43
69281;SHT31;56392;51.082;17.080;2023-07-16T02:40:42;22.51;68.99
69281;SHT31;56392;51.082;17.080;2023-07-16T02:46:05;22.21;70.22
69281;SHT31;56392;51.082;17.080;2023-07-16T02:51:30;22.09;70.80
69281;SHT31;56392;51.082;17.080;2023-07-16T02:56:53;22.20;70.30
69281;SHT31;56392;51.082;17.080;2023-07-16T03:02:16;22.29;69.79
69281;SHT31;56392;51.082;17.080;2023-07-16T03:07:40;22.03;71.16
69281;SHT31;56392;51.082;17.080;2023-07-16T03:13:03;21.86;71.74
69281;SHT31;56392;51.082;17.080;2023-07-16T03:18:28;22.05;71.13
69281;SHT31;56392;51.082;17.080;2023-07-16T03:23:52;22.21;70.60
69281;SHT31;56392;51.082;17.080;2023-07-16T03:29:15;22.23;70.41
69281;SHT31;56392;51.082;17.080;2023-07-16T03:34:38;22.33;70.17
69281;SHT31;56392;51.082;17.080;2023-07-16T03:40:14;22.43;70.62
69281;SHT31;56392;51.082;17.080;2023-07-16T03:45:37;22.71;69.91
69281;SHT31;56392;51.082;17.080;2023-07-16T03:51:00;22.90;69.77
69281;SHT31;56392;51.082;17.080;2023-07-16T03:56:24;23.19;69.21
69281;SHT31;56392;51.082;17.080;2023-07-16T04:01:48;23.38;68.57
69281;SHT31;56392;51.082;17.080;2023-07-16T04:07:11;23.55;68.24
69281;SHT31;56392;51.082;17.080;2023-07-16T04:12:35;23.65;68.30
69281;SHT31;56392;51.082;17.080;2023-07-16T04:17:58;23.78;68.41
69281;SHT31;56392;51.082;17.080;2023-07-16T04:23:22;23.97;67.98
69281;SHT31;56392;51.082;17.080;2023-07-16T04:28:46;24.21;66.46
69281;SHT31;56392;51.082;17.080;2023-07-16T04:34:09;24.44;65.58
69281;SHT31;56392;51.082;17.080;2023-07-16T04:39:32;24.64;64.62
69281;SHT31;56392;51.082;17.080;2023-07-16T04:44:56;24.82;63.88
69281;SHT31;56392;51.082;17.080;2023-07-16T04:50:19;25.06;63.14
69281;SHT31;56392;51.082;17.080;2023-07-16T04:55:42;25.33;62.47
69281;SHT31;56392;51.082;17.080;2023-07-16T05:01:08;25.54;61.79
69281;SHT31;56392;51.082;17.080;2023-07-16T05:06:33;25.81;61.51
69281;SHT31;56392;51.082;17.080;2023-07-16T05:11:56;26.24;60.52
69281;SHT31;56392;51.082;17.080;2023-07-16T05:17:21;26.77;58.84
69281;SHT31;56392;51.082;17.080;2023-07-16T05:22:44;27.38;57.41
69281;SHT31;56392;51.082;17.080;2023-07-16T05:28:07;27.98;55.95
69281;SHT31;56392;51.082;17.080;2023-07-16T05:33:32;29.15;53.81
69281;SHT31;56392;51.082;17.080;2023-07-16T05:38:57;29.76;52.03
69281;SHT31;56392;51.082;17.080;2023-07-16T05:44:21;30.32;50.70
69281;SHT31;56392;51.082;17.080;2023-07-16T05:49:46;29.90;51.75
69281;SHT31;56392;51.082;17.080;2023-07-16T05:55:09;29.33;52.43
69281;SHT31;56392;51.082;17.080;2023-07-16T06:00:32;30.58;49.81
69281;SHT31;56392;51.082;17.080;2023-07-16T06:05:56;31.77;47.60
69281;SHT31;56392;51.082;17.080;2023-07-16T06:11:20;31.37;47.82
69281;SHT31;56392;51.082;17.080;2023-07-16T06:16:43;30.76;48.17
69281;SHT31;56392;51.082;17.080;2023-07-16T06:22:07;31.71;45.97
69281;SHT31;56392;51.082;17.080;2023-07-16T06:27:31;36.06;37.80
69281;SHT31;56392;51.082;17.080;2023-07-16T06:32:54;34.05;41.59
69281;SHT31;56392;51.082;17.080;2023-07-16T06:38:19;32.22;44.71
69281;SHT31;56392;51.082;17.080;2023-07-16T06:43:41;30.78;46.95
69281;SHT31;56392;51.082;17.080;2023-07-16T06:49:05;30.07;48.18
69281;SHT31;56392;51.082;17.080;2023-07-16T06:54:30;29.90;48.23
69281;SHT31;56392;51.082;17.080;2023-07-16T06:59:53;29.45;48.61
69281;SHT31;56392;51.082;17.080;2023-07-16T07:05:17;29.01;49.41
69281;SHT31;56392;51.082;17.080;2023-07-16T07:10:41;28.72;49.82
69281;SHT31;56392;51.082;17.080;2023-07-16T07:16:04;28.77;50.06
69281;SHT31;56392;51.082;17.080;2023-07-16T07:21:27;28.67;50.18
69281;SHT31;56392;51.082;17.080;2023-07-16T07:26:52;28.65;50.05
69281;SHT31;56392;51.082;17.080;2023-07-16T07:32:15;29.04;49.71
69281;SHT31;56392;51.082;17.080;2023-07-16T07:37:37;29.23;49.88
69281;SHT31;56392;51.082;17.080;2023-07-16T07:43:02;29.39;48.97
69281;SHT31;56392;51.082;17.080;2023-07-16T07:48:26;29.56;49.04
69281;SHT31;56392;51.082;17.080;2023-07-16T07:53:49;31.54;45.43
69281;SHT31;56392;51.082;17.080;2023-07-16T07:59:13;32.45;44.84
69281;SHT31;56392;51.082;17.080;2023-07-16T08:04:36;34.15;41.86
69281;SHT31;56392;51.082;17.080;2023-07-16T08:09:59;33.82;41.41
69281;SHT31;56392;51.082;17.080;2023-07-16T08:15:24;33.85;41.43
69281;SHT31;56392;51.082;17.080;2023-07-16T08:20:47;36.57;37.41
69281;SHT31;56392;51.082;17.080;2023-07-16T08:26:10;36.91;37.05
69281;SHT31;56392;51.082;17.080;2023-07-16T08:31:35;36.66;36.81
69281;SHT31;56392;51.082;17.080;2023-07-16T08:36:58;35.08;38.79
69281;SHT31;56392;51.082;17.080;2023-07-16T08:42:21;36.17;36.81
69281;SHT31;56392;51.082;17.080;2023-07-16T08:47:46;38.07;33.64
69281;SHT31;56392;51.082;17.080;2023-07-16T08:53:10;35.65;37.30
69281;SHT31;56392;51.082;17.080;2023-07-16T08:58:33;34.06;39.37
69281;SHT31;56392;51.082;17.080;2023-07-16T09:03:58;32.76;41.47
69281;SHT31;56392;51.082;17.080;2023-07-16T09:09:22;31.54;43.83
69281;SHT31;56392;51.082;17.080;2023-07-16T09:14:45;30.76;45.73
69281;SHT31;56392;51.082;17.080;2023-07-16T09:20:11;30.37;47.45
69281;SHT31;56392;51.082;17.080;2023-07-16T09:25:34;29.83;50.30
69281;SHT31;56392;51.082;17.080;2023-07-16T09:31:03;29.16;56.13
69281;SHT31;56392;51.082;17.080;2023-07-16T09:36:28;28.87;58.34
69281;SHT31;56392;51.082;17.080;2023-07-16T09:41:51;29.98;57.76
69281;SHT31;56392;51.082;17.080;2023-07-16T09:47:14;32.29;53.99
69281;SHT31;56392;51.082;17.080;2023-07-16T09:52:39;34.08;47.64
69281;SHT31;56392;51.082;17.080;2023-07-16T09:58:08;37.66;39.06
69281;SHT31;56392;51.082;17.080;2023-07-16T10:03:32;37.99;37.53
69281;SHT31;56392;51.082;17.080;2023-07-16T10:08:57;37.79;36.50
69281;SHT31;56392;51.082;17.080;2023-07-16T10:14:24;35.07;40.35
69281;SHT31;56392;51.082;17.080;2023-07-16T10:19:55;33.75;43.83
69281;SHT31;56392;51.082;17.080;2023-07-16T10:25:24;32.51;47.22
69281;SHT31;56392;51.082;17.080;2023-07-16T10:30:49;31.76;47.57
69281;SHT31;56392;51.082;17.080;2023-07-16T10:36:17;31.30;49.56
69281;SHT31;56392;51.082;17.080;2023-07-16T10:41:43;30.61;51.64
69281;SHT31;56392;51.082;17.080;2023-07-16T10:47:06;30.24;52.57
69281;SHT31;56392;51.082;17.080;2023-07-16T10:52:30;30.10;52.43
69281;SHT31;56392;51.082;17.080;2023-07-16T10:57:56;29.81;52.05
69281;SHT31;56392;51.082;17.080;2023-07-16T11:03:19;29.52;51.42
69281;SHT31;56392;51.082;17.080;2023-07-16T11:08:43;29.07;52.36
69281;SHT31;56392;51.082;17.080;2023-07-16T11:14:09;28.74;52.91
69281;SHT31;56392;51.082;17.080;2023-07-16T11:19:32;28.47;53.35
69281;SHT31;56392;51.082;17.080;2023-07-16T11:24:55;28.40;53.83
69281;SHT31;56392;51.082;17.080;2023-07-16T11:30:22;28.26;54.58
69281;SHT31;56392;51.082;17.080;2023-07-16T11:35:47;28.67;54.02
69281;SHT31;56392;51.082;17.080;2023-07-16T11:41:10;29.22;52.79
69281;SHT31;56392;51.082;17.080;2023-07-16T11:46:35;29.52;52.35
69281;SHT31;56392;51.082;17.080;2023-07-16T11:51:58;29.30;52.63
69281;SHT31;56392;51.082;17.080;2023-07-16T11:57:23;28.92;53.07
69281;SHT31;56392;51.082;17.080;2023-07-16T12:02:47;28.75;53.32
69281;SHT31;56392;51.082;17.080;2023-07-16T12:08:13;28.86;53.14
69281;SHT31;56392;51.082;17.080;2023-07-16T12:13:37;29.04;52.80
69281;SHT31;56392;51.082;17.080;2023-07-16T12:19:01;29.18;52.22
69281;SHT31;56392;51.082;17.080;2023-07-16T12:24:24;29.42;52.12
69281;SHT31;56392;51.082;17.080;2023-07-16T12:29:47;29.69;51.85
69281;SHT31;56392;51.082;17.080;2023-07-16T12:35:11;29.81;51.71
69281;SHT31;56392;51.082;17.080;2023-07-16T12:40:36;29.76;51.68
69281;SHT31;56392;51.082;17.080;2023-07-16T12:46:03;29.69;51.95
69281;SHT31;56392;51.082;17.080;2023-07-16T12:51:27;29.69;51.19
69281;SHT31;56392;51.082;17.080;2023-07-16T12:56:50;29.81;50.87
69281;SHT31;56392;51.082;17.080;2023-07-16T13:02:13;29.87;50.74
69281;SHT31;56392;51.082;17.080;2023-07-16T13:07:38;29.84;50.85
69281;SHT31;56392;51.082;17.080;2023-07-16T13:13:01;29.62;51.35
69281;SHT31;56392;51.082;17.080;2023-07-16T13:18:25;29.46;51.92
69281;SHT31;56392;51.082;17.080;2023-07-16T13:23:49;29.42;52.20
69281;SHT31;56392;51.082;17.080;2023-07-16T13:29:12;29.33;52.00
69281;SHT31;56392;51.082;17.080;2023-07-16T13:34:35;29.42;51.82
69281;SHT31;56392;51.082;17.080;2023-07-16T13:40:00;29.63;51.60
69281;SHT31;56392;51.082;17.080;2023-07-16T13:45:25;29.90;51.39
69281;SHT31;56392;51.082;17.080;2023-07-16T13:50:49;29.89;52.21
69281;SHT31;56392;51.082;17.080;2023-07-16T13:56:13;30.04;51.33
69281;SHT31;56392;51.082;17.080;2023-07-16T14:01:38;30.11;50.94
69281;SHT31;56392;51.082;17.080;2023-07-16T14:07:02;30.23;51.37
69281;SHT31;56392;51.082;17.080;2023-07-16T14:12:28;30.01;51.99
69281;SHT31;56392;51.082;17.080;2023-07-16T14:17:51;29.59;52.39
69281;SHT31;56392;51.082;17.080;2023-07-16T14:23:14;29.16;53.16
69281;SHT31;56392;51.082;17.080;2023-07-16T14:28:39;29.16;53.34
69281;SHT31;56392;51.082;17.080;2023-07-16T14:34:02;29.08;53.60
69281;SHT31;56392;51.082;17.080;2023-07-16T14:39:26;28.98;53.68
69281;SHT31;56392;51.082;17.080;2023-07-16T14:44:50;28.91;53.63
69281;SHT31;56392;51.082;17.080;2023-07-16T14:50:13;28.65;54.53
69281;SHT31;56392;51.082;17.080;2023-07-16T14:55:36;28.39;55.85
69281;SHT31;56392;51.082;17.080;2023-07-16T15:01:01;28.17;56.35
69281;SHT31;56392;51.082;17.080;2023-07-16T15:06:25;28.02;56.30
69281;SHT31;56392;51.082;17.080;2023-07-16T15:11:48;27.90;57.13
69281;SHT31;56392;51.082;17.080;2023-07-16T15:17:12;27.69;58.15
69281;SHT31;56392;51.082;17.080;2023-07-16T15:22:36;27.49;59.61
69281;SHT31;56392;51.082;17.080;2023-07-16T15:27:59;27.45;59.58
69281;SHT31;56392;51.082;17.080;2023-07-16T15:33:24;27.51;59.64
69281;SHT31;56392;51.082;17.080;2023-07-16T15:38:47;27.49;59.60
69281;SHT31;56392;51.082;17.080;2023-07-16T15:44:10;27.57;59.39
69281;SHT31;56392;51.082;17.080;2023-07-16T15:49:35;27.65;59.04
69281;SHT31;56392;51.082;17.080;2023-07-16T15:54:58;27.79;59.14
69281;SHT31;56392;51.082;17.080;2023-07-16T16:00:21;28.14;57.96
69281;SHT31;56392;51.082;17.080;2023-07-16T16:05:46;28.40;58.07
69281;SHT31;56392;51.082;17.080;2023-07-16T16:11:08;28.33;58.64
69281;SHT31;56392;51.082;17.080;2023-07-16T16:16:31;28.33;58.26
69281;SHT31;56392;51.082;17.080;2023-07-16T16:21:56;28.37;58.00
69281;SHT31;56392;51.082;17.080;2023-07-16T16:27:19;28.46;56.67
69281;SHT31;56392;51.082;17.080;2023-07-16T16:32:42;28.51;56.32
69281;SHT31;56392;51.082;17.080;2023-07-16T16:38:07;28.58;55.86
69281;SHT31;56392;51.082;17.080;2023-07-16T16:43:30;28.54;55.64
69281;SHT31;56392;51.082;17.080;2023-07-16T16:48:53;28.47;55.72
69281;SHT31;56392;51.082;17.080;2023-07-16T16:54:17;28.32;56.35
69281;SHT31;56392;51.082;17.080;2023-07-16T16:59:42;28.16;55.96
69281;SHT31;56392;51.082;17.080;2023-07-16T17:05:07;27.92;57.28
69281;SHT31;56392;51.082;17.080;2023-07-16T17:10:32;27.88;55.64
69281;SHT31;56392;51.082;17.080;2023-07-16T17:15:56;27.79;55.61
69281;SHT31;56392;51.082;17.080;2023-07-16T17:21:20;27.68;55.44
69281;SHT31;56392;51.082;17.080;2023-07-16T17:26:45;27.58;55.55
69281;SHT31;56392;51.082;17.080;2023-07-16T17:32:08;27.49;56.48
69281;SHT31;56392;51.082;17.080;2023-07-16T17:37:32;27.34;56.82
69281;SHT31;56392;51.082;17.080;2023-07-16T17:42:56;27.27;57.84
69281;SHT31;56392;51.082;17.080;2023-07-16T17:48:19;27.17;58.13
69281;SHT31;56392;51.082;17.080;2023-07-16T17:53:42;27.00;59.00
69281;SHT31;56392;51.082;17.080;2023-07-16T17:59:07;26.90;59.86
69281;SHT31;56392;51.082;17.080;2023-07-16T18:04:32;26.80;60.29
69281;SHT31;56392;51.082;17.080;2023-07-16T18:09:54;26.72;60.97
69281;SHT31;56392;51.082;17.080;2023-07-16T18:15:19;26.49;61.88
69281;SHT31;56392;51.082;17.080;2023-07-16T18:20:43;26.38;62.16
69281;SHT31;56392;51.082;17.080;2023-07-16T18:26:07;26.26;62.99
69281;SHT31;56392;51.082;17.080;2023-07-16T18:31:34;26.06;63.30
69281;SHT31;56392;51.082;17.080;2023-07-16T18:37:00;25.81;63.34
69281;SHT31;56392;51.082;17.080;2023-07-16T18:42:24;25.64;63.33
69281;SHT31;56392;51.082;17.080;2023-07-16T18:47:49;25.53;63.49
69281;SHT31;56392;51.082;17.080;2023-07-16T18:53:13;25.37;63.41
69281;SHT31;56392;51.082;17.080;2023-07-16T18:58:36;25.24;63.96
69281;SHT31;56392;51.082;17.080;2023-07-16T19:04:00;25.07;65.40
69281;SHT31;56392;51.082;17.080;2023-07-16T19:09:25;24.90;66.25
69281;SHT31;56392;51.082;17.080;2023-07-16T19:14:48;24.73;66.72
69281;SHT31;56392;51.082;17.080;2023-07-16T19:20:15;24.56;67.20
69281;SHT31;56392;51.082;17.080;2023-07-16T19:25:38;24.47;67.84
69281;SHT31;56392;51.082;17.080;2023-07-16T19:31:01;24.35;68.24
69281;SHT31;56392;51.082;17.080;2023-07-16T19:36:25;24.17;68.50
69281;SHT31;56392;51.082;17.080;2023-07-16T19:41:49;24.03;68.68
69281;SHT31;56392;51.082;17.080;2023-07-16T19:47:12;23.93;68.68
69281;SHT31;56392;51.082;17.080;2023-07-16T19:52:37;23.83;69.04
69281;SHT31;56392;51.082;17.080;2023-07-16T19:58:00;23.71;69.44
69281;SHT31;56392;51.082;17.080;2023-07-16T20:03:26;23.63;69.46
69281;SHT31;56392;51.082;17.080;2023-07-16T20:08:50;23.55;69.40
69281;SHT31;56392;51.082;17.080;2023-07-16T20:14:13;23.42;69.96
69281;SHT31;56392;51.082;17.080;2023-07-16T20:19:36;23.29;70.15
69281;SHT31;56392;51.082;17.080;2023-07-16T20:25:01;23.23;70.87
69281;SHT31;56392;51.082;17.080;2023-07-16T20:30:26;23.26;71.39
69281;SHT31;56392;51.082;17.080;2023-07-16T20:35:49;23.33;71.56
69281;SHT31;56392;51.082;17.080;2023-07-16T20:41:14;23.33;70.93
69281;SHT31;56392;51.082;17.080;2023-07-16T20:46:37;23.35;70.64
69281;SHT31;56392;51.082;17.080;2023-07-16T20:52:00;23.22;71.37
69281;SHT31;56392;51.082;17.080;2023-07-16T20:57:27;23.08;72.18
69281;SHT31;56392;51.082;17.080;2023-07-16T21:02:51;22.99;71.85
69281;SHT31;56392;51.082;17.080;2023-07-16T21:08:14;22.91;71.74
69281;SHT31;56392;51.082;17.080;2023-07-16T21:13:39;22.81;72.09
69281;SHT31;56392;51.082;17.080;2023-07-16T21:19:02;22.74;72.50
69281;SHT31;56392;51.082;17.080;2023-07-16T21:24:25;22.67;73.43
69281;SHT31;56392;51.082;17.080;2023-07-16T21:29:51;22.61;73.26
69281;SHT31;56392;51.082;17.080;2023-07-16T21:35:14;22.63;72.48
69281;SHT31;56392;51.082;17.080;2023-07-16T21:40:38;22.55;73.06
69281;SHT31;56392;51.082;17.080;2023-07-16T21:46:02;22.57;71.46
69281;SHT31;56392;51.082;17.080;2023-07-16T21:51:25;22.61;71.36
69281;SHT31;56392;51.082;17.080;2023-07-16T21:56:48;22.67;70.13
69281;SHT31;56392;51.082;17.080;2023-07-16T22:02:13;22.77;69.90
69281;SHT31;56392;51.082;17.080;2023-07-16T22:07:36;22.87;69.60
69281;SHT31;56392;51.082;17.080;2023-07-16T22:12:59;22.68;69.23
69281;SHT31;56392;51.082;17.080;2023-07-16T22:18:27;22.53;69.53
69281;SHT31;56392;51.082;17.080;2023-07-16T22:23:50;22.41;70.36
69281;SHT31;56392;51.082;17.080;2023-07-16T22:29:14;22.39;70.53
69281;SHT31;56392;51.082;17.080;2023-07-16T22:34:38;22.36;70.80
69281;SHT31;56392;51.082;17.080;2023-07-16T22:40:03;22.32;71.06
69281;SHT31;56392;51.082;17.080;2023-07-16T22:45:27;22.30;70.85
69281;SHT31;56392;51.082;17.080;2023-07-16T22:50:54;22.32;70.10
69281;SHT31;56392;51.082;17.080;2023-07-16T22:56:17;22.27;70.08
69281;SHT31;56392;51.082;17.080;2023-07-16T23:01:41;22.24;70.01
69281;SHT31;56392;51.082;17.080;2023-07-16T23:07:06;22.16;71.27
69281;SHT31;56392;51.082;17.080;2023-07-16T23:12:29;22.03;72.03
69281;SHT31;56392;51.082;17.080;2023-07-16T23:17:52;21.95;71.52
69281;SHT31;56392;51.082;17.080;2023-07-16T23:23:16;21.81;71.54
69281;SHT31;56392;51.082;17.080;2023-07-16T23:28:39;21.72;71.12
69281;SHT31;56392;51.082;17.080;2023-07-16T23:34:04;21.69;71.20
69281;SHT31;56392;51.082;17.080;2023-07-16T23:39:28;21.67;71.05
69281;SHT31;56392;51.082;17.080;2023-07-16T23:44:51;21.61;71.58
69281;SHT31;56392;51.082;17.080;2023-07-16T23:50:14;21.59;71.87
69281;SHT31;56392;51.082;17.080;2023-07-16T23:55:38;21.69;70.38
